sensor_id;sensor_type;location;lat;lon;timestamp;P1;durP1;ratioP1;P2;durP2;ratioP2
38901;SDS011;24661;53.566;9.910;2023-09-08T00:02:06;6.93;;;5.23;;
38901;SDS011;24661;53.566;9.910;2023-09-08T00:04:32;7.10;;;5.93;;
38901;SDS011;24661;53.566;9.910;2023-09-08T00:07:00;6.73;;;5.73;;
38901;SDS011;24661;53.566;9.910;2023-09-08T00:09:26;10.90;;;5.47;;
38901;SDS011;24661;53.566;9.910;2023-09-08T00:11:51;6.57;;;5.57;;
38901;SDS011;24661;53.566;9.910;2023-09-08T00:14:19;7.17;;;5.47;;
38901;SDS011;24661;53.566;9.910;2023-09-08T00:16:44;8.50;;;6.47;;
38901;SDS011;24661;53.566;9.910;2023-09-08T00:19:10;7.23;;;5.10;;
38901;SDS011;24661;53.566;9.910;2023-09-08T00:21:36;7.33;;;5.57;;
38901;SDS011;24661;53.566;9.910;2023-09-08T00:24:03;7.67;;;5.87;;
38901;SDS011;24661;53.566;9.910;2023-09-08T00:26:29;9.07;;;5.97;;
38901;SDS011;24661;53.566;9.910;2023-09-08T00:28:55;8.97;;;6.20;;
38901;SDS011;24661;53.566;9.910;2023-09-08T00:31:21;10.77;;;5.57;;
38901;SDS011;24661;53.566;9.910;2023-09-08T00:33:46;7.77;;;6.03;;
38901;SDS011;24661;53.566;9.910;2023-09-08T00:36:12;9.13;;;6.67;;
38901;SDS011;24661;53.566;9.910;2023-09-08T00:38:38;7.60;;;6.27;;
38901;SDS011;24661;53.566;9.910;2023-09-08T00:41:04;8.90;;;6.30;;
38901;SDS011;24661;53.566;9.910;2023-09-08T00:43:30;8.60;;;5.90;;
38901;SDS011;24661;53.566;9.910;2023-09-08T00:45:56;10.07;;;5.70;;
38901;SDS011;24661;53.566;9.910;2023-09-08T00:48:23;8.13;;;5.73;;
38901;SDS011;24661;53.566;9.910;2023-09-08T00:50:50;7.40;;;5.90;;
38901;SDS011;24661;53.566;9.910;2023-09-08T00:53:15;7.80;;;5.77;;
38901;SDS011;24661;53.566;9.910;2023-09-08T00:55:42;6.93;;;5.90;;
38901;SDS011;24661;53.566;9.910;2023-09-08T00:58:07;8.20;;;5.53;;
38901;SDS011;24661;53.566;9.910;2023-09-08T01:00:33;9.03;;;6.23;;
38901;SDS011;24661;53.566;9.910;2023-09-08T01:02:59;7.53;;;5.53;;
38901;SDS011;24661;53.566;9.910;2023-09-08T01:05:25;9.43;;;6.10;;
38901;SDS011;24661;53.566;9.910;2023-09-08T01:07:51;9.37;;;6.50;;
38901;SDS011;24661;53.566;9.910;2023-09-08T01:10:17;8.00;;;6.17;;
38901;SDS011;24661;53.566;9.910;2023-09-08T01:12:43;8.23;;;5.20;;
38901;SDS011;24661;53.566;9.910;2023-09-08T01:15:09;8.67;;;5.47;;
38901;SDS011;24661;53.566;9.910;2023-09-08T01:17:34;10.13;;;5.50;;
38901;SDS011;24661;53.566;9.910;2023-09-08T01:20:12;7.63;;;5.90;;
38901;SDS011;24661;53.566;9.910;2023-09-08T01:25:29;8.00;;;5.97;;
38901;SDS011;24661;53.566;9.910;2023-09-08T01:27:57;10.47;;;5.87;;
38901;SDS011;24661;53.566;9.910;2023-09-08T01:30:26;8.57;;;5.17;;
38901;SDS011;24661;53.566;9.910;2023-09-08T01:32:54;7.57;;;5.73;;
38901;SDS011;24661;53.566;9.910;2023-09-08T01:35:20;9.87;;;6.10;;
38901;SDS011;24661;53.566;9.910;2023-09-08T01:37:47;8.60;;;5.47;;
38901;SDS011;24661;53.566;9.910;2023-09-08T01:40:14;10.27;;;5.33;;
38901;SDS011;24661;53.566;9.910;2023-09-08T01:42:40;9.70;;;5.93;;
38901;SDS011;24661;53.566;9.910;2023-09-08T01:45:06;13.47;;;5.97;;
38901;SDS011;24661;53.566;9.910;2023-09-08T01:47:33;8.17;;;5.50;;
38901;SDS011;24661;53.566;9.910;2023-09-08T01:49:59;6.40;;;5.50;;
38901;SDS011;24661;53.566;9.910;2023-09-08T01:52:25;7.17;;;5.83;;
38901;SDS011;24661;53.566;9.910;2023-09-08T01:54:50;10.87;;;5.80;;
38901;SDS011;24661;53.566;9.910;2023-09-08T01:57:16;9.33;;;6.07;;
38901;SDS011;24661;53.566;9.910;2023-09-08T01:59:42;9.77;;;6.40;;
38901;SDS011;24661;53.566;9.910;2023-09-08T02:02:08;11.37;;;6.73;;
38901;SDS011;24661;53.566;9.910;2023-09-08T02:04:33;6.70;;;5.87;;
38901;SDS011;24661;53.566;9.910;2023-09-08T02:06:59;5.70;;;5.00;;
38901;SDS011;24661;53.566;9.910;2023-09-08T02:09:31;6.70;;;5.67;;
38901;SDS011;24661;53.566;9.910;2023-09-08T02:12:01;8.17;;;6.03;;
38901;SDS011;24661;53.566;9.910;2023-09-08T02:14:27;8.03;;;6.00;;
38901;SDS011;24661;53.566;9.910;2023-09-08T02:16:55;6.87;;;6.00;;
38901;SDS011;24661;53.566;9.910;2023-09-08T02:19:21;7.50;;;6.07;;
38901;SDS011;24661;53.566;9.910;2023-09-08T02:21:47;8.40;;;5.87;;
38901;SDS011;24661;53.566;9.910;2023-09-08T02:24:13;9.27;;;6.63;;
38901;SDS011;24661;53.566;9.910;2023-09-08T02:26:39;9.33;;;6.97;;
38901;SDS011;24661;53.566;9.910;2023-09-08T02:29:05;7.50;;;6.57;;
38901;SDS011;24661;53.566;9.910;2023-09-08T02:31:30;9.00;;;5.77;;
38901;SDS011;24661;53.566;9.910;2023-09-08T02:33:56;6.63;;;5.90;;
38901;SDS011;24661;53.566;9.910;2023-09-08T02:36:22;8.93;;;6.27;;
38901;SDS011;24661;53.566;9.910;2023-09-08T02:38:53;9.80;;;6.33;;
38901;SDS011;24661;53.566;9.910;2023-09-08T02:41:19;6.63;;;5.93;;
38901;SDS011;24661;53.566;9.910;2023-09-08T02:43:45;8.93;;;6.23;;
38901;SDS011;24661;53.566;9.910;2023-09-08T02:46:11;12.03;;;7.23;;
38901;SDS011;24661;53.566;9.910;2023-09-08T02:48:37;8.53;;;6.43;;
38901;SDS011;24661;53.566;9.910;2023-09-08T02:51:03;10.83;;;6.40;;
38901;SDS011;24661;53.566;9.910;2023-09-08T02:53:28;8.20;;;6.87;;
38901;SDS011;24661;53.566;9.910;2023-09-08T02:55:54;6.87;;;6.17;;
38901;SDS011;24661;53.566;9.910;2023-09-08T02:58:20;9.00;;;6.27;;
38901;SDS011;24661;53.566;9.910;2023-09-08T03:00:46;9.30;;;6.50;;
38901;SDS011;24661;53.566;9.910;2023-09-08T03:03:11;6.50;;;5.80;;
38901;SDS011;24661;53.566;9.910;2023-09-08T03:05:37;9.40;;;5.93;;
38901;SDS011;24661;53.566;9.910;2023-09-08T03:08:02;7.67;;;6.53;;
38901;SDS011;24661;53.566;9.910;2023-09-08T03:10:28;7.77;;;6.37;;
38901;SDS011;24661;53.566;9.910;2023-09-08T03:12:54;12.03;;;7.43;;
38901;SDS011;24661;53.566;9.910;2023-09-08T03:15:20;7.23;;;6.13;;
38901;SDS011;24661;53.566;9.910;2023-09-08T03:17:45;7.87;;;6.73;;
38901;SDS011;24661;53.566;9.910;2023-09-08T03:20:11;8.27;;;6.33;;
38901;SDS011;24661;53.566;9.910;2023-09-08T03:22:38;8.93;;;6.57;;
38901;SDS011;24661;53.566;9.910;2023-09-08T03:25:04;10.70;;;7.27;;
38901;SDS011;24661;53.566;9.910;2023-09-08T03:27:30;7.60;;;5.93;;
38901;SDS011;24661;53.566;9.910;2023-09-08T03:29:56;13.93;;;7.97;;
38901;SDS011;24661;53.566;9.910;2023-09-08T03:32:21;8.77;;;6.70;;
38901;SDS011;24661;53.566;9.910;2023-09-08T03:34:47;11.47;;;7.50;;
38901;SDS011;24661;53.566;9.910;2023-09-08T03:37:13;9.83;;;7.13;;
38901;SDS011;24661;53.566;9.910;2023-09-08T03:39:40;12.00;;;7.60;;
38901;SDS011;24661;53.566;9.910;2023-09-08T03:42:06;9.00;;;7.37;;
38901;SDS011;24661;53.566;9.910;2023-09-08T03:44:31;10.73;;;7.23;;
38901;SDS011;24661;53.566;9.910;2023-09-08T03:46:57;8.33;;;6.93;;
38901;SDS011;24661;53.566;9.910;2023-09-08T03:49:22;10.23;;;7.20;;
38901;SDS011;24661;53.566;9.910;2023-09-08T03:51:48;10.70;;;7.63;;
38901;SDS011;24661;53.566;9.910;2023-09-08T03:54:13;10.13;;;7.47;;
38901;SDS011;24661;53.566;9.910;2023-09-08T03:56:39;11.40;;;7.20;;
38901;SDS011;24661;53.566;9.910;2023-09-08T03:59:04;10.63;;;7.63;;
38901;SDS011;24661;53.566;9.910;2023-09-08T04:01:30;10.10;;;7.10;;
38901;SDS011;24661;53.566;9.910;2023-09-08T04:03:55;10.10;;;7.90;;
38901;SDS011;24661;53.566;9.910;2023-09-08T04:06:21;10.40;;;8.10;;
38901;SDS011;24661;53.566;9.910;2023-09-08T04:08:46;10.77;;;7.27;;
38901;SDS011;24661;53.566;9.910;2023-09-08T04:11:12;7.53;;;6.73;;
38901;SDS011;24661;53.566;9.910;2023-09-08T04:13:37;8.30;;;6.27;;
38901;SDS011;24661;53.566;9.910;2023-09-08T04:16:03;10.57;;;7.37;;
38901;SDS011;24661;53.566;9.910;2023-09-08T04:18:29;10.07;;;7.50;;
38901;SDS011;24661;53.566;9.910;2023-09-08T04:20:54;8.90;;;6.93;;
38901;SDS011;24661;53.566;9.910;2023-09-08T04:23:20;11.87;;;7.60;;
38901;SDS011;24661;53.566;9.910;2023-09-08T04:25:45;10.57;;;7.80;;
38901;SDS011;24661;53.566;9.910;2023-09-08T04:28:11;12.17;;;7.80;;
38901;SDS011;24661;53.566;9.910;2023-09-08T04:30:36;9.43;;;7.60;;
38901;SDS011;24661;53.566;9.910;2023-09-08T04:33:02;12.93;;;8.67;;
38901;SDS011;24661;53.566;9.910;2023-09-08T04:35:28;11.10;;;7.93;;
38901;SDS011;24661;53.566;9.910;2023-09-08T04:37:53;9.57;;;7.57;;
38901;SDS011;24661;53.566;9.910;2023-09-08T04:40:19;14.87;;;8.57;;
38901;SDS011;24661;53.566;9.910;2023-09-08T04:42:44;9.47;;;7.90;;
38901;SDS011;24661;53.566;9.910;2023-09-08T04:45:10;11.87;;;8.27;;
38901;SDS011;24661;53.566;9.910;2023-09-08T04:47:35;14.47;;;8.07;;
38901;SDS011;24661;53.566;9.910;2023-09-08T04:50:02;10.33;;;7.80;;
38901;SDS011;24661;53.566;9.910;2023-09-08T04:52:28;16.10;;;9.47;;
38901;SDS011;24661;53.566;9.910;2023-09-08T04:54:54;11.03;;;7.37;;
38901;SDS011;24661;53.566;9.910;2023-09-08T04:57:19;15.60;;;9.27;;
38901;SDS011;24661;53.566;9.910;2023-09-08T04:59:45;11.50;;;8.07;;
38901;SDS011;24661;53.566;9.910;2023-09-08T05:02:10;13.60;;;8.50;;
38901;SDS011;24661;53.566;9.910;2023-09-08T05:04:36;12.83;;;8.93;;
38901;SDS011;24661;53.566;9.910;2023-09-08T05:07:02;13.33;;;8.27;;
38901;SDS011;24661;53.566;9.910;2023-09-08T05:09:28;13.30;;;9.37;;
38901;SDS011;24661;53.566;9.910;2023-09-08T05:11:53;9.53;;;7.80;;
38901;SDS011;24661;53.566;9.910;2023-09-08T05:14:19;14.60;;;8.07;;
38901;SDS011;24661;53.566;9.910;2023-09-08T05:16:44;11.50;;;8.13;;
38901;SDS011;24661;53.566;9.910;2023-09-08T05:19:11;11.37;;;8.03;;
38901;SDS011;24661;53.566;9.910;2023-09-08T05:21:40;13.47;;;8.00;;
38901;SDS011;24661;53.566;9.910;2023-09-08T05:24:06;12.57;;;8.00;;
38901;SDS011;24661;53.566;9.910;2023-09-08T05:26:33;12.03;;;8.73;;
38901;SDS011;24661;53.566;9.910;2023-09-08T05:29:01;12.70;;;9.97;;
38901;SDS011;24661;53.566;9.910;2023-09-08T05:31:26;14.13;;;9.00;;
38901;SDS011;24661;53.566;9.910;2023-09-08T05:33:52;14.83;;;8.83;;
38901;SDS011;24661;53.566;9.910;2023-09-08T05:36:17;11.77;;;8.07;;
38901;SDS011;24661;53.566;9.910;2023-09-08T05:38:43;13.77;;;8.07;;
38901;SDS011;24661;53.566;9.910;2023-09-08T05:41:09;11.03;;;7.70;;
38901;SDS011;24661;53.566;9.910;2023-09-08T05:43:34;13.83;;;8.57;;
38901;SDS011;24661;53.566;9.910;2023-09-08T05:46:00;14.20;;;8.03;;
38901;SDS011;24661;53.566;9.910;2023-09-08T05:48:25;19.87;;;8.57;;
38901;SDS011;24661;53.566;9.910;2023-09-08T05:50:51;19.90;;;8.87;;
38901;SDS011;24661;53.566;9.910;2023-09-08T05:53:16;19.67;;;9.17;;
38901;SDS011;24661;53.566;9.910;2023-09-08T05:55:42;9.33;;;8.07;;
38901;SDS011;24661;53.566;9.910;2023-09-08T05:58:08;15.13;;;8.93;;
38901;SDS011;24661;53.566;9.910;2023-09-08T06:00:33;13.93;;;8.50;;
38901;SDS011;24661;53.566;9.910;2023-09-08T06:03:00;11.80;;;8.63;;
38901;SDS011;24661;53.566;9.910;2023-09-08T06:05:25;12.90;;;8.57;;
38901;SDS011;24661;53.566;9.910;2023-09-08T06:07:51;14.13;;;8.23;;
38901;SDS011;24661;53.566;9.910;2023-09-08T06:10:16;13.60;;;7.70;;
38901;SDS011;24661;53.566;9.910;2023-09-08T06:12:42;17.97;;;9.13;;
38901;SDS011;24661;53.566;9.910;2023-09-08T06:15:08;17.53;;;8.13;;
38901;SDS011;24661;53.566;9.910;2023-09-08T06:17:34;16.60;;;9.80;;
38901;SDS011;24661;53.566;9.910;2023-09-08T06:19:59;11.83;;;7.97;;
38901;SDS011;24661;53.566;9.910;2023-09-08T06:22:25;12.53;;;8.40;;
38901;SDS011;24661;53.566;9.910;2023-09-08T06:24:50;11.97;;;8.57;;
38901;SDS011;24661;53.566;9.910;2023-09-08T06:27:16;13.07;;;8.10;;
38901;SDS011;24661;53.566;9.910;2023-09-08T06:29:41;16.63;;;9.37;;
38901;SDS011;24661;53.566;9.910;2023-09-08T06:32:08;12.77;;;8.80;;
38901;SDS011;24661;53.566;9.910;2023-09-08T06:34:34;15.10;;;9.70;;
38901;SDS011;24661;53.566;9.910;2023-09-08T06:37:00;20.43;;;10.03;;
38901;SDS011;24661;53.566;9.910;2023-09-08T06:39:27;13.03;;;9.07;;
38901;SDS011;24661;53.566;9.910;2023-09-08T06:41:53;14.93;;;8.50;;
38901;SDS011;24661;53.566;9.910;2023-09-08T06:44:20;17.33;;;9.70;;
38901;SDS011;24661;53.566;9.910;2023-09-08T06:46:45;17.93;;;10.00;;
38901;SDS011;24661;53.566;9.910;2023-09-08T06:49:11;15.67;;;10.07;;
38901;SDS011;24661;53.566;9.910;2023-09-08T06:51:37;16.33;;;10.37;;
38901;SDS011;24661;53.566;9.910;2023-09-08T06:54:03;17.43;;;10.70;;
38901;SDS011;24661;53.566;9.910;2023-09-08T06:56:29;17.20;;;11.03;;
38901;SDS011;24661;53.566;9.910;2023-09-08T06:58:55;22.63;;;10.47;;
38901;SDS011;24661;53.566;9.910;2023-09-08T07:01:22;17.13;;;11.03;;
38901;SDS011;24661;53.566;9.910;2023-09-08T07:03:48;19.53;;;10.60;;
38901;SDS011;24661;53.566;9.910;2023-09-08T07:06:14;19.60;;;10.00;;
38901;SDS011;24661;53.566;9.910;2023-09-08T07:08:40;18.80;;;10.73;;
38901;SDS011;24661;53.566;9.910;2023-09-08T07:11:06;16.73;;;11.53;;
38901;SDS011;24661;53.566;9.910;2023-09-08T07:13:31;17.37;;;10.13;;
38901;SDS011;24661;53.566;9.910;2023-09-08T07:15:57;20.97;;;10.90;;
38901;SDS011;24661;53.566;9.910;2023-09-08T07:18:22;22.13;;;10.77;;
38901;SDS011;24661;53.566;9.910;2023-09-08T07:20:48;17.00;;;10.30;;
38901;SDS011;24661;53.566;9.910;2023-09-08T07:23:14;15.73;;;9.57;;
38901;SDS011;24661;53.566;9.910;2023-09-08T07:25:44;12.20;;;9.10;;
38901;SDS011;24661;53.566;9.910;2023-09-08T07:28:11;17.47;;;9.53;;
38901;SDS011;24661;53.566;9.910;2023-09-08T07:30:37;12.37;;;9.00;;
38901;SDS011;24661;53.566;9.910;2023-09-08T07:33:02;15.57;;;9.20;;
38901;SDS011;24661;53.566;9.910;2023-09-08T07:35:29;13.23;;;8.67;;
38901;SDS011;24661;53.566;9.910;2023-09-08T07:37:55;12.33;;;8.47;;
38901;SDS011;24661;53.566;9.910;2023-09-08T07:40:20;12.63;;;8.20;;
38901;SDS011;24661;53.566;9.910;2023-09-08T07:42:46;12.60;;;8.07;;
38901;SDS011;24661;53.566;9.910;2023-09-08T07:45:12;11.30;;;8.60;;
38901;SDS011;24661;53.566;9.910;2023-09-08T07:47:37;21.07;;;8.43;;
38901;SDS011;24661;53.566;9.910;2023-09-08T07:50:22;12.43;;;8.70;;
38901;SDS011;24661;53.566;9.910;2023-09-08T07:52:50;14.33;;;8.13;;
38901;SDS011;24661;53.566;9.910;2023-09-08T07:55:16;11.17;;;8.60;;
38901;SDS011;24661;53.566;9.910;2023-09-08T07:57:43;19.87;;;9.43;;
38901;SDS011;24661;53.566;9.910;2023-09-08T08:00:11;12.50;;;8.30;;
38901;SDS011;24661;53.566;9.910;2023-09-08T08:02:42;11.50;;;8.17;;
38901;SDS011;24661;53.566;9.910;2023-09-08T08:05:10;12.07;;;8.27;;
38901;SDS011;24661;53.566;9.910;2023-09-08T08:07:35;12.97;;;7.90;;
38901;SDS011;24661;53.566;9.910;2023-09-08T08:10:01;12.63;;;8.70;;
38901;SDS011;24661;53.566;9.910;2023-09-08T08:12:27;16.63;;;8.03;;
38901;SDS011;24661;53.566;9.910;2023-09-08T08:14:52;15.53;;;8.00;;
38901;SDS011;24661;53.566;9.910;2023-09-08T08:17:18;12.33;;;9.20;;
38901;SDS011;24661;53.566;9.910;2023-09-08T08:19:44;11.53;;;8.30;;
38901;SDS011;24661;53.566;9.910;2023-09-08T08:22:10;10.17;;;7.87;;
38901;SDS011;24661;53.566;9.910;2023-09-08T08:24:37;12.63;;;8.30;;
38901;SDS011;24661;53.566;9.910;2023-09-08T08:27:02;14.33;;;9.13;;
38901;SDS011;24661;53.566;9.910;2023-09-08T08:29:28;14.77;;;7.47;;
38901;SDS011;24661;53.566;9.910;2023-09-08T08:31:54;10.97;;;7.73;;
38901;SDS011;24661;53.566;9.910;2023-09-08T08:34:20;13.67;;;8.20;;
38901;SDS011;24661;53.566;9.910;2023-09-08T08:36:46;9.00;;;7.30;;
38901;SDS011;24661;53.566;9.910;2023-09-08T08:39:11;19.43;;;8.30;;
38901;SDS011;24661;53.566;9.910;2023-09-08T08:41:37;15.30;;;8.43;;
38901;SDS011;24661;53.566;9.910;2023-09-08T08:44:07;13.03;;;7.73;;
38901;SDS011;24661;53.566;9.910;2023-09-08T08:46:33;9.77;;;8.00;;
38901;SDS011;24661;53.566;9.910;2023-09-08T08:49:04;11.67;;;8.03;;
38901;SDS011;24661;53.566;9.910;2023-09-08T08:51:32;12.60;;;8.00;;
38901;SDS011;24661;53.566;9.910;2023-09-08T08:53:59;11.50;;;7.27;;
38901;SDS011;24661;53.566;9.910;2023-09-08T08:56:29;16.43;;;8.83;;
38901;SDS011;24661;53.566;9.910;2023-09-08T08:58:58;11.20;;;7.23;;
38901;SDS011;24661;53.566;9.910;2023-09-08T09:01:25;7.93;;;6.97;;
38901;SDS011;24661;53.566;9.910;2023-09-08T09:03:51;8.60;;;7.23;;
38901;SDS011;24661;53.566;9.910;2023-09-08T09:06:18;13.87;;;8.20;;
38901;SDS011;24661;53.566;9.910;2023-09-08T09:08:44;10.83;;;7.63;;
38901;SDS011;24661;53.566;9.910;2023-09-08T09:11:10;10.93;;;7.47;;
38901;SDS011;24661;53.566;9.910;2023-09-08T09:13:36;10.43;;;7.27;;
38901;SDS011;24661;53.566;9.910;2023-09-08T09:16:02;10.30;;;7.33;;
38901;SDS011;24661;53.566;9.910;2023-09-08T09:18:29;15.07;;;7.17;;
38901;SDS011;24661;53.566;9.910;2023-09-08T09:20:57;12.13;;;8.30;;
38901;SDS011;24661;53.566;9.910;2023-09-08T09:23:31;8.50;;;7.17;;
38901;SDS011;24661;53.566;9.910;2023-09-08T09:25:58;12.03;;;7.10;;
38901;SDS011;24661;53.566;9.910;2023-09-08T09:28:28;14.43;;;6.73;;
38901;SDS011;24661;53.566;9.910;2023-09-08T09:30:54;14.23;;;7.00;;
38901;SDS011;24661;53.566;9.910;2023-09-08T09:33:20;13.40;;;6.43;;
38901;SDS011;24661;53.566;9.910;2023-09-08T09:35:48;11.40;;;6.53;;
38901;SDS011;24661;53.566;9.910;2023-09-08T09:38:18;9.90;;;6.90;;
38901;SDS011;24661;53.566;9.910;2023-09-08T09:40:45;12.73;;;7.50;;
38901;SDS011;24661;53.566;9.910;2023-09-08T09:43:12;12.60;;;7.83;;
38901;SDS011;24661;53.566;9.910;2023-09-08T09:45:39;13.53;;;7.60;;
38901;SDS011;24661;53.566;9.910;2023-09-08T09:48:06;15.70;;;7.87;;
38901;SDS011;24661;53.566;9.910;2023-09-08T09:50:35;13.77;;;7.77;;
38901;SDS011;24661;53.566;9.910;2023-09-08T09:53:12;12.00;;;6.73;;
38901;SDS011;24661;53.566;9.910;2023-09-08T09:55:40;9.40;;;6.83;;
38901;SDS011;24661;53.566;9.910;2023-09-08T09:58:07;11.17;;;7.10;;
38901;SDS011;24661;53.566;9.910;2023-09-08T10:00:35;10.13;;;6.80;;
38901;SDS011;24661;53.566;9.910;2023-09-08T10:03:02;10.87;;;6.13;;
38901;SDS011;24661;53.566;9.910;2023-09-08T10:05:29;16.23;;;7.77;;
38901;SDS011;24661;53.566;9.910;2023-09-08T10:07:55;31.57;;;7.57;;
38901;SDS011;24661;53.566;9.910;2023-09-08T10:10:21;11.97;;;7.50;;
38901;SDS011;24661;53.566;9.910;2023-09-08T10:12:51;9.87;;;7.00;;
38901;SDS011;24661;53.566;9.910;2023-09-08T10:15:20;11.20;;;6.77;;
38901;SDS011;24661;53.566;9.910;2023-09-08T10:17:49;8.27;;;6.47;;
38901;SDS011;24661;53.566;9.910;2023-09-08T10:20:22;11.17;;;7.10;;
38901;SDS011;24661;53.566;9.910;2023-09-08T10:22:50;8.43;;;7.07;;
38901;SDS011;24661;53.566;9.910;2023-09-08T10:25:19;8.50;;;6.23;;
38901;SDS011;24661;53.566;9.910;2023-09-08T10:27:49;9.57;;;5.73;;
38901;SDS011;24661;53.566;9.910;2023-09-08T10:30:15;10.30;;;6.77;;
38901;SDS011;24661;53.566;9.910;2023-09-08T10:32:42;32.17;;;24.60;;
38901;SDS011;24661;53.566;9.910;2023-09-08T10:35:09;10.30;;;8.03;;
38901;SDS011;24661;53.566;9.910;2023-09-08T10:37:35;9.97;;;6.70;;
38901;SDS011;24661;53.566;9.910;2023-09-08T10:42:49;10.73;;;9.53;;
38901;SDS011;24661;53.566;9.910;2023-09-08T10:45:30;18.37;;;7.07;;
38901;SDS011;24661;53.566;9.910;2023-09-08T10:47:56;10.33;;;6.67;;
38901;SDS011;24661;53.566;9.910;2023-09-08T10:50:26;7.10;;;6.13;;
38901;SDS011;24661;53.566;9.910;2023-09-08T10:53:05;6.50;;;5.87;;
38901;SDS011;24661;53.566;9.910;2023-09-08T10:55:35;9.37;;;6.17;;
38901;SDS011;24661;53.566;9.910;2023-09-08T10:58:32;7.40;;;5.70;;
38901;SDS011;24661;53.566;9.910;2023-09-08T11:01:01;9.50;;;6.17;;
38901;SDS011;24661;53.566;9.910;2023-09-08T11:06:06;8.50;;;6.10;;
38901;SDS011;24661;53.566;9.910;2023-09-08T11:08:33;13.70;;;5.70;;
38901;SDS011;24661;53.566;9.910;2023-09-08T11:11:00;10.20;;;6.17;;
38901;SDS011;24661;53.566;9.910;2023-09-08T11:13:26;9.63;;;5.83;;
38901;SDS011;24661;53.566;9.910;2023-09-08T11:15:55;10.97;;;6.00;;
38901;SDS011;24661;53.566;9.910;2023-09-08T11:18:30;8.27;;;6.33;;
38901;SDS011;24661;53.566;9.910;2023-09-08T11:20:56;7.70;;;6.10;;
38901;SDS011;24661;53.566;9.910;2023-09-08T11:23:23;7.93;;;5.43;;
38901;SDS011;24661;53.566;9.910;2023-09-08T11:25:49;8.93;;;6.27;;
38901;SDS011;24661;53.566;9.910;2023-09-08T11:28:16;10.53;;;6.40;;
38901;SDS011;24661;53.566;9.910;2023-09-08T11:30:42;8.20;;;5.50;;
38901;SDS011;24661;53.566;9.910;2023-09-08T11:33:18;11.00;;;5.40;;
38901;SDS011;24661;53.566;9.910;2023-09-08T11:35:48;6.50;;;5.00;;
38901;SDS011;24661;53.566;9.910;2023-09-08T11:38:14;8.03;;;5.37;;
38901;SDS011;24661;53.566;9.910;2023-09-08T11:40:40;7.03;;;5.57;;
38901;SDS011;24661;53.566;9.910;2023-09-08T11:43:06;9.20;;;6.30;;
38901;SDS011;24661;53.566;9.910;2023-09-08T11:45:35;9.90;;;5.70;;
38901;SDS011;24661;53.566;9.910;2023-09-08T11:48:01;8.50;;;5.23;;
38901;SDS011;24661;53.566;9.910;2023-09-08T11:50:29;6.37;;;5.10;;
38901;SDS011;24661;53.566;9.910;2023-09-08T11:52:55;9.90;;;5.50;;
38901;SDS011;24661;53.566;9.910;2023-09-08T11:55:23;6.43;;;5.13;;
38901;SDS011;24661;53.566;9.910;2023-09-08T11:57:50;8.47;;;5.30;;
38901;SDS011;24661;53.566;9.910;2023-09-08T12:00:22;6.00;;;5.17;;
38901;SDS011;24661;53.566;9.910;2023-09-08T12:02:48;9.30;;;5.23;;
38901;SDS011;24661;53.566;9.910;2023-09-08T12:05:24;9.43;;;5.90;;
38901;SDS011;24661;53.566;9.910;2023-09-08T12:07:51;8.47;;;5.47;;
38901;SDS011;24661;53.566;9.910;2023-09-08T12:10:18;6.43;;;5.00;;
38901;SDS011;24661;53.566;9.910;2023-09-08T12:12:54;14.07;;;5.67;;
38901;SDS011;24661;53.566;9.910;2023-09-08T12:15:33;7.13;;;4.40;;
38901;SDS011;24661;53.566;9.910;2023-09-08T12:18:03;6.10;;;5.07;;
38901;SDS011;24661;53.566;9.910;2023-09-08T12:20:33;8.20;;;5.07;;
38901;SDS011;24661;53.566;9.910;2023-09-08T12:23:02;7.40;;;5.30;;
38901;SDS011;24661;53.566;9.910;2023-09-08T12:25:46;7.53;;;5.50;;
38901;SDS011;24661;53.566;9.910;2023-09-08T12:28:17;7.50;;;5.00;;
38901;SDS011;24661;53.566;9.910;2023-09-08T12:30:44;8.27;;;5.13;;
38901;SDS011;24661;53.566;9.910;2023-09-08T12:33:09;6.97;;;4.67;;
38901;SDS011;24661;53.566;9.910;2023-09-08T12:35:36;7.53;;;4.93;;
38901;SDS011;24661;53.566;9.910;2023-09-08T12:38:05;10.87;;;4.60;;
38901;SDS011;24661;53.566;9.910;2023-09-08T12:40:32;10.00;;;4.77;;
38901;SDS011;24661;53.566;9.910;2023-09-08T12:43:00;6.07;;;4.57;;
38901;SDS011;24661;53.566;9.910;2023-09-08T12:45:26;6.00;;;5.03;;
38901;SDS011;24661;53.566;9.910;2023-09-08T12:47:52;8.93;;;4.50;;
38901;SDS011;24661;53.566;9.910;2023-09-08T12:50:20;5.27;;;4.47;;
38901;SDS011;24661;53.566;9.910;2023-09-08T12:52:45;6.27;;;4.23;;
38901;SDS011;24661;53.566;9.910;2023-09-08T12:55:11;5.50;;;4.37;;
38901;SDS011;24661;53.566;9.910;2023-09-08T12:57:37;7.77;;;5.03;;
38901;SDS011;24661;53.566;9.910;2023-09-08T13:00:03;12.53;;;5.17;;
38901;SDS011;24661;53.566;9.910;2023-09-08T13:02:29;7.10;;;5.10;;
38901;SDS011;24661;53.566;9.910;2023-09-08T13:04:54;6.80;;;3.77;;
38901;SDS011;24661;53.566;9.910;2023-09-08T13:07:20;6.10;;;4.70;;
38901;SDS011;24661;53.566;9.910;2023-09-08T13:09:46;9.30;;;4.50;;
38901;SDS011;24661;53.566;9.910;2023-09-08T13:12:12;7.20;;;5.33;;
38901;SDS011;24661;53.566;9.910;2023-09-08T13:14:38;5.07;;;4.57;;
38901;SDS011;24661;53.566;9.910;2023-09-08T13:17:04;6.80;;;4.43;;
38901;SDS011;24661;53.566;9.910;2023-09-08T13:19:31;10.30;;;4.73;;
38901;SDS011;24661;53.566;9.910;2023-09-08T13:21:57;6.80;;;4.10;;
38901;SDS011;24661;53.566;9.910;2023-09-08T13:24:23;5.30;;;4.17;;
38901;SDS011;24661;53.566;9.910;2023-09-08T13:26:48;6.20;;;4.83;;
38901;SDS011;24661;53.566;9.910;2023-09-08T13:29:14;6.53;;;4.50;;
38901;SDS011;24661;53.566;9.910;2023-09-08T13:31:41;6.90;;;3.80;;
38901;SDS011;24661;53.566;9.910;2023-09-08T13:34:06;6.67;;;4.07;;
38901;SDS011;24661;53.566;9.910;2023-09-08T13:36:32;4.23;;;3.73;;
38901;SDS011;24661;53.566;9.910;2023-09-08T13:38:57;5.97;;;4.57;;
38901;SDS011;24661;53.566;9.910;2023-09-08T13:41:23;6.00;;;4.57;;
38901;SDS011;24661;53.566;9.910;2023-09-08T13:43:49;8.10;;;4.90;;
38901;SDS011;24661;53.566;9.910;2023-09-08T13:46:14;7.80;;;4.73;;
38901;SDS011;24661;53.566;9.910;2023-09-08T13:48:40;4.97;;;3.90;;
38901;SDS011;24661;53.566;9.910;2023-09-08T13:51:06;6.87;;;4.33;;
38901;SDS011;24661;53.566;9.910;2023-09-08T13:53:31;6.73;;;4.17;;
38901;SDS011;24661;53.566;9.910;2023-09-08T13:55:57;7.73;;;4.57;;
38901;SDS011;24661;53.566;9.910;2023-09-08T13:58:22;9.00;;;4.90;;
38901;SDS011;24661;53.566;9.910;2023-09-08T14:00:48;6.03;;;4.73;;
38901;SDS011;24661;53.566;9.910;2023-09-08T14:03:14;5.93;;;5.03;;
38901;SDS011;24661;53.566;9.910;2023-09-08T14:05:41;5.43;;;4.93;;
38901;SDS011;24661;53.566;9.910;2023-09-08T14:08:07;9.13;;;5.30;;
38901;SDS011;24661;53.566;9.910;2023-09-08T14:10:32;6.67;;;5.30;;
38901;SDS011;24661;53.566;9.910;2023-09-08T14:12:58;7.63;;;5.40;;
38901;SDS011;24661;53.566;9.910;2023-09-08T14:15:23;6.53;;;4.23;;
38901;SDS011;24661;53.566;9.910;2023-09-08T14:17:49;5.23;;;4.73;;
38901;SDS011;24661;53.566;9.910;2023-09-08T14:20:14;7.50;;;4.67;;
38901;SDS011;24661;53.566;9.910;2023-09-08T14:22:40;5.40;;;4.90;;
38901;SDS011;24661;53.566;9.910;2023-09-08T14:25:06;6.23;;;5.23;;
38901;SDS011;24661;53.566;9.910;2023-09-08T14:27:31;4.70;;;4.13;;
38901;SDS011;24661;53.566;9.910;2023-09-08T14:29:58;7.07;;;4.97;;
38901;SDS011;24661;53.566;9.910;2023-09-08T14:32:24;7.30;;;4.77;;
38901;SDS011;24661;53.566;9.910;2023-09-08T14:34:49;6.23;;;5.13;;
38901;SDS011;24661;53.566;9.910;2023-09-08T14:37:15;6.90;;;4.83;;
38901;SDS011;24661;53.566;9.910;2023-09-08T14:39:40;6.17;;;5.03;;
38901;SDS011;24661;53.566;9.910;2023-09-08T14:42:06;8.03;;;5.77;;
38901;SDS011;24661;53.566;9.910;2023-09-08T14:44:32;5.70;;;5.20;;
38901;SDS011;24661;53.566;9.910;2023-09-08T14:46:57;6.07;;;5.23;;